sensor_id;sensor_type;location;lat;lon;timestamp;temperature;humidity
52034;DHT22;38045;52.988;6.536;2023-07-31T00:00:41;15.60;99.90
52034;DHT22;38045;52.988;6.536;2023-07-31T00:03:06;15.60;99.90
52034;DHT22;38045;52.988;6.536;2023-07-31T00:05:32;15.60;99.90
52034;DHT22;38045;52.988;6.536;2023-07-31T00:07:57;15.60;99.90
52034;DHT22;38045;52.988;6.536;2023-07-31T00:10:23;15.50;99.90
52034;DHT22;38045;52.988;6.536;2023-07-31T00:12:49;15.50;99.90
52034;DHT22;38045;52.988;6.536;2023-07-31T00:15:15;15.50;99.90
52034;DHT22;38045;52.988;6.536;2023-07-31T00:17:40;15.50;99.90
52034;DHT22;38045;52.988;6.536;2023-07-31T00:20:06;15.40;99.90
52034;DHT22;38045;52.988;6.536;2023-07-31T00:22:32;15.40;99.90
52034;DHT22;38045;52.988;6.536;2023-07-31T00:24:58;15.50;99.90
52034;DHT22;38045;52.988;6.536;2023-07-31T00:27:25;15.40;99.90
52034;DHT22;38045;52.988;6.536;2023-07-31T00:29:50;15.50;99.90
52034;DHT22;38045;52.988;6.536;2023-07-31T00:32:16;15.40;99.90
52034;DHT22;38045;52.988;6.536;2023-07-31T00:34:42;15.40;99.90
52034;DHT22;38045;52.988;6.536;2023-07-31T00:37:07;15.40;99.90
52034;DHT22;38045;52.988;6.536;2023-07-31T00:39:34;15.30;99.90
52034;DHT22;38045;52.988;6.536;2023-07-31T00:42:00;15.40;99.90
52034;DHT22;38045;52.988;6.536;2023-07-31T00:44:25;15.30;99.90
52034;DHT22;38045;52.988;6.536;2023-07-31T00:46:51;15.30;99.90
52034;DHT22;38045;52.988;6.536;2023-07-31T00:49:17;15.40;99.90
52034;DHT22;38045;52.988;6.536;2023-07-31T00:51:43;15.40;99.90
52034;DHT22;38045;52.988;6.536;2023-07-31T00:54:09;15.30;99.90
52034;DHT22;38045;52.988;6.536;2023-07-31T00:56:36;15.30;99.90
52034;DHT22;38045;52.988;6.536;2023-07-31T00:59:02;15.30;99.90
52034;DHT22;38045;52.988;6.536;2023-07-31T01:01:27;15.30;99.90
52034;DHT22;38045;52.988;6.536;2023-07-31T01:03:53;15.30;99.90
52034;DHT22;38045;52.988;6.536;2023-07-31T01:06:36;15.30;99.90
52034;DHT22;38045;52.988;6.536;2023-07-31T01:09:28;15.20;99.90
52034;DHT22;38045;52.988;6.536;2023-07-31T01:12:01;15.20;99.90
52034;DHT22;38045;52.988;6.536;2023-07-31T01:14:27;15.20;99.90
52034;DHT22;38045;52.988;6.536;2023-07-31T01:16:53;15.20;99.90
52034;DHT22;38045;52.988;6.536;2023-07-31T01:19:22;15.30;99.90
52034;DHT22;38045;52.988;6.536;2023-07-31T01:22:12;15.20;99.90
52034;DHT22;38045;52.988;6.536;2023-07-31T01:25:11;15.20;99.90
52034;DHT22;38045;52.988;6.536;2023-07-31T01:27:53;15.20;99.90
52034;DHT22;38045;52.988;6.536;2023-07-31T01:30:28;15.20;99.90
52034;DHT22;38045;52.988;6.536;2023-07-31T01:32:57;15.20;99.90
52034;DHT22;38045;52.988;6.536;2023-07-31T01:35:23;15.20;99.90
52034;DHT22;38045;52.988;6.536;2023-07-31T01:37:52;15.20;99.90
52034;DHT22;38045;52.988;6.536;2023-07-31T01:40:19;15.20;99.90
52034;DHT22;38045;52.988;6.536;2023-07-31T01:42:45;15.20;99.90
52034;DHT22;38045;52.988;6.536;2023-07-31T01:45:11;15.10;99.90
52034;DHT22;38045;52.988;6.536;2023-07-31T01:47:36;15.20;99.90
52034;DHT22;38045;52.988;6.536;2023-07-31T01:50:02;15.20;99.90
52034;DHT22;38045;52.988;6.536;2023-07-31T01:52:28;15.20;99.90
52034;DHT22;38045;52.988;6.536;2023-07-31T01:54:54;15.10;99.90
52034;DHT22;38045;52.988;6.536;2023-07-31T01:57:19;15.20;99.90
52034;DHT22;38045;52.988;6.536;2023-07-31T01:59:45;15.10;99.90
52034;DHT22;38045;52.988;6.536;2023-07-31T02:02:10;15.20;99.90
52034;DHT22;38045;52.988;6.536;2023-07-31T02:04:36;15.10;99.90
52034;DHT22;38045;52.988;6.536;2023-07-31T02:07:04;15.10;99.90
52034;DHT22;38045;52.988;6.536;2023-07-31T02:09:29;15.10;99.90
52034;DHT22;38045;52.988;6.536;2023-07-31T02:11:55;15.10;99.90
52034;DHT22;38045;52.988;6.536;2023-07-31T02:14:20;15.10;99.90
52034;DHT22;38045;52.988;6.536;2023-07-31T02:16:46;15.10;99.90
52034;DHT22;38045;52.988;6.536;2023-07-31T02:19:12;15.10;99.90
52034;DHT22;38045;52.988;6.536;2023-07-31T02:21:37;15.10;99.90
52034;DHT22;38045;52.988;6.536;2023-07-31T02:24:03;15.20;99.90
52034;DHT22;38045;52.988;6.536;2023-07-31T02:26:29;15.20;99.90
52034;DHT22;38045;52.988;6.536;2023-07-31T02:28:54;15.10;99.90
52034;DHT22;38045;52.988;6.536;2023-07-31T02:31:20;15.20;99.90
52034;DHT22;38045;52.988;6.536;2023-07-31T02:33:45;15.20;99.90
52034;DHT22;38045;52.988;6.536;2023-07-31T02:36:11;15.20;99.90
52034;DHT22;38045;52.988;6.536;2023-07-31T02:38:37;15.20;99.90
52034;DHT22;38045;52.988;6.536;2023-07-31T02:41:02;15.20;99.90
52034;DHT22;38045;52.988;6.536;2023-07-31T02:43:28;15.20;99.90
52034;DHT22;38045;52.988;6.536;2023-07-31T02:45:53;15.20;99.90
52034;DHT22;38045;52.988;6.536;2023-07-31T02:48:19;15.20;99.90
52034;DHT22;38045;52.988;6.536;2023-07-31T02:50:47;15.20;99.90
52034;DHT22;38045;52.988;6.536;2023-07-31T02:53:12;15.20;99.90
52034;DHT22;38045;52.988;6.536;2023-07-31T02:55:38;15.20;99.90
52034;DHT22;38045;52.988;6.536;2023-07-31T02:58:04;15.30;99.90
52034;DHT22;38045;52.988;6.536;2023-07-31T03:00:29;15.30;99.90
52034;DHT22;38045;52.988;6.536;2023-07-31T03:02:55;15.30;99.90
52034;DHT22;38045;52.988;6.536;2023-07-31T03:05:21;15.30;99.90
52034;DHT22;38045;52.988;6.536;2023-07-31T03:07:46;15.30;99.90
52034;DHT22;38045;52.988;6.536;2023-07-31T03:10:12;15.40;99.90
52034;DHT22;38045;52.988;6.536;2023-07-31T03:12:38;15.40;99.90
52034;DHT22;38045;52.988;6.536;2023-07-31T03:15:03;15.40;99.90
52034;DHT22;38045;52.988;6.536;2023-07-31T03:17:29;15.40;99.90
52034;DHT22;38045;52.988;6.536;2023-07-31T03:19:55;15.40;99.90
52034;DHT22;38045;52.988;6.536;2023-07-31T03:22:20;15.40;99.90
52034;DHT22;38045;52.988;6.536;2023-07-31T03:24:46;15.40;99.90
52034;DHT22;38045;52.988;6.536;2023-07-31T03:27:11;15.40;99.90
52034;DHT22;38045;52.988;6.536;2023-07-31T03:29:37;15.40;99.90
52034;DHT22;38045;52.988;6.536;2023-07-31T03:32:03;15.50;99.90
52034;DHT22;38045;52.988;6.536;2023-07-31T03:34:29;15.40;99.90
52034;DHT22;38045;52.988;6.536;2023-07-31T03:36:54;15.40;99.90
52034;DHT22;38045;52.988;6.536;2023-07-31T03:39:20;15.60;99.90
52034;DHT22;38045;52.988;6.536;2023-07-31T03:41:46;15.50;99.90
52034;DHT22;38045;52.988;6.536;2023-07-31T03:44:11;15.50;99.90
52034;DHT22;38045;52.988;6.536;2023-07-31T03:46:37;15.50;99.90
52034;DHT22;38045;52.988;6.536;2023-07-31T03:49:03;15.50;99.90
52034;DHT22;38045;52.988;6.536;2023-07-31T03:51:28;15.50;99.90
52034;DHT22;38045;52.988;6.536;2023-07-31T03:53:54;15.50;99.90
52034;DHT22;38045;52.988;6.536;2023-07-31T03:56:19;15.40;99.90
52034;DHT22;38045;52.988;6.536;2023-07-31T03:58:45;15.50;99.90
52034;DHT22;38045;52.988;6.536;2023-07-31T04:01:11;15.50;99.90
52034;DHT22;38045;52.988;6.536;2023-07-31T04:03:36;15.40;99.90
52034;DHT22;38045;52.988;6.536;2023-07-31T04:06:02;15.40;99.90
52034;DHT22;38045;52.988;6.536;2023-07-31T04:08:28;15.40;99.90
52034;DHT22;38045;52.988;6.536;2023-07-31T04:10:53;15.40;99.90
52034;DHT22;38045;52.988;6.536;2023-07-31T04:13:19;15.50;99.90
52034;DHT22;38045;52.988;6.536;2023-07-31T04:15:48;15.40;99.90
52034;DHT22;38045;52.988;6.536;2023-07-31T04:18:15;15.40;99.90
52034;DHT22;38045;52.988;6.536;2023-07-31T04:20:41;15.40;99.90
52034;DHT22;38045;52.988;6.536;2023-07-31T04:23:06;15.40;99.90
52034;DHT22;38045;52.988;6.536;2023-07-31T04:25:32;15.40;99.90
52034;DHT22;38045;52.988;6.536;2023-07-31T04:27:57;15.40;99.90
52034;DHT22;38045;52.988;6.536;2023-07-31T04:30:24;15.40;99.90
52034;DHT22;38045;52.988;6.536;2023-07-31T04:32:49;15.40;99.90
52034;DHT22;38045;52.988;6.536;2023-07-31T04:35:15;15.40;99.90
52034;DHT22;38045;52.988;6.536;2023-07-31T04:37:40;15.40;99.90
52034;DHT22;38045;52.988;6.536;2023-07-31T04:40:07;15.40;99.90
52034;DHT22;38045;52.988;6.536;2023-07-31T04:42:33;15.40;99.90
52034;DHT22;38045;52.988;6.536;2023-07-31T04:45:00;15.30;99.90
52034;DHT22;38045;52.988;6.536;2023-07-31T04:47:25;15.30;99.90
52034;DHT22;38045;52.988;6.536;2023-07-31T04:49:51;15.40;99.90
52034;DHT22;38045;52.988;6.536;2023-07-31T04:52:16;15.40;99.90
52034;DHT22;38045;52.988;6.536;2023-07-31T04:54:42;15.40;99.90
52034;DHT22;38045;52.988;6.536;2023-07-31T04:57:07;15.40;99.90
52034;DHT22;38045;52.988;6.536;2023-07-31T04:59:33;15.50;99.90
52034;DHT22;38045;52.988;6.536;2023-07-31T05:01:59;15.50;99.90
52034;DHT22;38045;52.988;6.536;2023-07-31T05:04:24;15.60;99.90
52034;DHT22;38045;52.988;6.536;2023-07-31T05:06:50;15.60;99.90
52034;DHT22;38045;52.988;6.536;2023-07-31T05:09:15;15.60;99.90
52034;DHT22;38045;52.988;6.536;2023-07-31T05:11:41;15.70;99.90
52034;DHT22;38045;52.988;6.536;2023-07-31T05:14:08;15.80;99.90
52034;DHT22;38045;52.988;6.536;2023-07-31T05:16:34;15.80;99.90
52034;DHT22;38045;52.988;6.536;2023-07-31T05:19:00;15.80;99.90
52034;DHT22;38045;52.988;6.536;2023-07-31T05:21:25;15.80;99.90
52034;DHT22;38045;52.988;6.536;2023-07-31T05:23:51;15.90;99.90
52034;DHT22;38045;52.988;6.536;2023-07-31T05:26:16;15.90;99.90
52034;DHT22;38045;52.988;6.536;2023-07-31T05:28:43;16.00;99.90
52034;DHT22;38045;52.988;6.536;2023-07-31T05:31:08;16.00;99.90
52034;DHT22;38045;52.988;6.536;2023-07-31T05:33:34;16.00;99.90
52034;DHT22;38045;52.988;6.536;2023-07-31T05:36:00;16.10;99.90
52034;DHT22;38045;52.988;6.536;2023-07-31T05:38:25;16.10;99.90
52034;DHT22;38045;52.988;6.536;2023-07-31T05:40:51;16.20;99.90
52034;DHT22;38045;52.988;6.536;2023-07-31T05:43:17;16.20;99.90
52034;DHT22;38045;52.988;6.536;2023-07-31T05:45:42;16.30;99.90
52034;DHT22;38045;52.988;6.536;2023-07-31T05:48:08;16.30;99.90
52034;DHT22;38045;52.988;6.536;2023-07-31T05:50:34;16.30;99.90
52034;DHT22;38045;52.988;6.536;2023-07-31T05:52:59;16.40;99.90
52034;DHT22;38045;52.988;6.536;2023-07-31T05:55:25;16.40;99.90
52034;DHT22;38045;52.988;6.536;2023-07-31T05:57:53;16.40;99.90
52034;DHT22;38045;52.988;6.536;2023-07-31T06:00:19;16.40;99.90
52034;DHT22;38045;52.988;6.536;2023-07-31T06:02:47;16.40;99.90
52034;DHT22;38045;52.988;6.536;2023-07-31T06:05:12;16.40;99.90
52034;DHT22;38045;52.988;6.536;2023-07-31T06:07:38;16.40;99.90
52034;DHT22;38045;52.988;6.536;2023-07-31T06:10:04;16.40;99.90
52034;DHT22;38045;52.988;6.536;2023-07-31T06:12:34;16.50;99.90
52034;DHT22;38045;52.988;6.536;2023-07-31T06:15:01;16.50;99.90
52034;DHT22;38045;52.988;6.536;2023-07-31T06:17:27;16.50;99.90
52034;DHT22;38045;52.988;6.536;2023-07-31T06:19:53;16.60;99.90
52034;DHT22;38045;52.988;6.536;2023-07-31T06:22:19;16.60;99.90
52034;DHT22;38045;52.988;6.536;2023-07-31T06:24:45;16.60;99.90
52034;DHT22;38045;52.988;6.536;2023-07-31T06:27:11;16.60;99.90
52034;DHT22;38045;52.988;6.536;2023-07-31T06:29:36;16.70;99.90
52034;DHT22;38045;52.988;6.536;2023-07-31T06:32:02;16.60;99.90
52034;DHT22;38045;52.988;6.536;2023-07-31T06:34:28;16.60;99.90
52034;DHT22;38045;52.988;6.536;2023-07-31T06:36:56;16.60;99.90
52034;DHT22;38045;52.988;6.536;2023-07-31T06:39:21;16.60;99.90
52034;DHT22;38045;52.988;6.536;2023-07-31T06:41:47;16.60;99.90
52034;DHT22;38045;52.988;6.536;2023-07-31T06:44:12;16.70;99.90
52034;DHT22;38045;52.988;6.536;2023-07-31T06:46:38;16.70;99.90
52034;DHT22;38045;52.988;6.536;2023-07-31T06:49:04;16.70;99.90
52034;DHT22;38045;52.988;6.536;2023-07-31T06:51:29;16.70;99.90
52034;DHT22;38045;52.988;6.536;2023-07-31T06:53:59;16.80;99.90
52034;DHT22;38045;52.988;6.536;2023-07-31T06:56:25;16.80;99.90
52034;DHT22;38045;52.988;6.536;2023-07-31T06:58:51;16.70;99.90
52034;DHT22;38045;52.988;6.536;2023-07-31T07:01:17;16.70;99.90
52034;DHT22;38045;52.988;6.536;2023-07-31T07:03:42;16.70;99.90
52034;DHT22;38045;52.988;6.536;2023-07-31T07:06:08;16.70;99.90
52034;DHT22;38045;52.988;6.536;2023-07-31T07:08:34;16.70;99.90
52034;DHT22;38045;52.988;6.536;2023-07-31T07:10:59;16.70;99.90
52034;DHT22;38045;52.988;6.536;2023-07-31T07:13:25;16.70;99.90
52034;DHT22;38045;52.988;6.536;2023-07-31T07:15:51;16.60;99.90
52034;DHT22;38045;52.988;6.536;2023-07-31T07:18:17;16.60;99.90
52034;DHT22;38045;52.988;6.536;2023-07-31T07:20:50;16.60;99.90
52034;DHT22;38045;52.988;6.536;2023-07-31T07:23:16;16.60;99.90
52034;DHT22;38045;52.988;6.536;2023-07-31T07:25:42;16.60;99.90
52034;DHT22;38045;52.988;6.536;2023-07-31T07:28:09;16.60;99.90
52034;DHT22;38045;52.988;6.536;2023-07-31T07:30:34;16.50;99.90
52034;DHT22;38045;52.988;6.536;2023-07-31T07:33:00;16.50;99.90
52034;DHT22;38045;52.988;6.536;2023-07-31T07:35:26;16.60;99.90
52034;DHT22;38045;52.988;6.536;2023-07-31T07:37:51;16.60;99.90
52034;DHT22;38045;52.988;6.536;2023-07-31T07:40:17;16.60;99.90
52034;DHT22;38045;52.988;6.536;2023-07-31T07:42:42;16.50;99.90
52034;DHT22;38045;52.988;6.536;2023-07-31T07:45:08;16.50;99.90
52034;DHT22;38045;52.988;6.536;2023-07-31T07:47:34;16.50;99.90
52034;DHT22;38045;52.988;6.536;2023-07-31T07:50:00;16.50;99.90
52034;DHT22;38045;52.988;6.536;2023-07-31T07:52:25;16.50;99.90
52034;DHT22;38045;52.988;6.536;2023-07-31T07:54:51;16.60;99.90
52034;DHT22;38045;52.988;6.536;2023-07-31T07:57:17;16.60;99.90
52034;DHT22;38045;52.988;6.536;2023-07-31T07:59:42;16.50;99.90
52034;DHT22;38045;52.988;6.536;2023-07-31T08:02:08;16.50;99.90
52034;DHT22;38045;52.988;6.536;2023-07-31T08:04:33;16.50;99.90
52034;DHT22;38045;52.988;6.536;2023-07-31T08:06:59;16.50;99.90
52034;DHT22;38045;52.988;6.536;2023-07-31T08:09:24;16.50;99.90
52034;DHT22;38045;52.988;6.536;2023-07-31T08:11:50;16.60;99.90
52034;DHT22;38045;52.988;6.536;2023-07-31T08:14:16;16.60;99.90
52034;DHT22;38045;52.988;6.536;2023-07-31T08:16:42;16.50;99.90
52034;DHT22;38045;52.988;6.536;2023-07-31T08:19:07;16.50;99.90
52034;DHT22;38045;52.988;6.536;2023-07-31T08:21:33;16.60;99.90
52034;DHT22;38045;52.988;6.536;2023-07-31T08:23:58;16.60;99.90
52034;DHT22;38045;52.988;6.536;2023-07-31T08:26:24;16.60;99.90
52034;DHT22;38045;52.988;6.536;2023-07-31T08:28:49;16.60;99.90
52034;DHT22;38045;52.988;6.536;2023-07-31T08:31:15;16.70;99.90
52034;DHT22;38045;52.988;6.536;2023-07-31T08:33:41;16.70;99.90
52034;DHT22;38045;52.988;6.536;2023-07-31T08:36:06;16.80;99.90
52034;DHT22;38045;52.988;6.536;2023-07-31T08:38:32;16.90;99.90
52034;DHT22;38045;52.988;6.536;2023-07-31T08:40:58;16.80;99.90
52034;DHT22;38045;52.988;6.536;2023-07-31T08:43:27;16.90;99.90
52034;DHT22;38045;52.988;6.536;2023-07-31T08:45:53;16.90;99.90
52034;DHT22;38045;52.988;6.536;2023-07-31T08:48:21;17.00;99.90
52034;DHT22;38045;52.988;6.536;2023-07-31T08:50:47;17.00;99.90
52034;DHT22;38045;52.988;6.536;2023-07-31T08:53:13;17.10;99.90
52034;DHT22;38045;52.988;6.536;2023-07-31T08:55:39;17.10;99.90
52034;DHT22;38045;52.988;6.536;2023-07-31T08:58:05;17.00;99.90
52034;DHT22;38045;52.988;6.536;2023-07-31T09:00:32;17.10;99.90
52034;DHT22;38045;52.988;6.536;2023-07-31T09:03:18;17.20;99.90
52034;DHT22;38045;52.988;6.536;2023-07-31T09:05:45;17.20;99.90
52034;DHT22;38045;52.988;6.536;2023-07-31T09:08:18;17.30;99.90
52034;DHT22;38045;52.988;6.536;2023-07-31T09:10:46;17.30;99.90
52034;DHT22;38045;52.988;6.536;2023-07-31T09:13:14;17.40;99.90
52034;DHT22;38045;52.988;6.536;2023-07-31T09:15:43;17.50;99.90
52034;DHT22;38045;52.988;6.536;2023-07-31T09:18:09;17.50;99.90
52034;DHT22;38045;52.988;6.536;2023-07-31T09:20:35;17.50;99.90
52034;DHT22;38045;52.988;6.536;2023-07-31T09:23:13;17.50;99.90
52034;DHT22;38045;52.988;6.536;2023-07-31T09:25:43;17.50;99.90
52034;DHT22;38045;52.988;6.536;2023-07-31T09:28:10;17.50;99.90
52034;DHT22;38045;52.988;6.536;2023-07-31T09:30:51;17.50;99.90
52034;DHT22;38045;52.988;6.536;2023-07-31T09:33:20;17.50;99.90
52034;DHT22;38045;52.988;6.536;2023-07-31T09:35:46;17.40;99.90
52034;DHT22;38045;52.988;6.536;2023-07-31T09:38:14;17.40;99.90
52034;DHT22;38045;52.988;6.536;2023-07-31T09:40:41;17.40;99.90
52034;DHT22;38045;52.988;6.536;2023-07-31T09:43:10;17.50;99.90
52034;DHT22;38045;52.988;6.536;2023-07-31T09:45:43;17.50;99.90
52034;DHT22;38045;52.988;6.536;2023-07-31T09:48:11;17.50;99.90
52034;DHT22;38045;52.988;6.536;2023-07-31T09:50:39;17.40;99.90
52034;DHT22;38045;52.988;6.536;2023-07-31T09:53:05;17.40;99.90
52034;DHT22;38045;52.988;6.536;2023-07-31T09:55:32;17.40;99.90
52034;DHT22;38045;52.988;6.536;2023-07-31T09:57:58;17.50;99.90
52034;DHT22;38045;52.988;6.536;2023-07-31T10:00:25;17.50;99.90
52034;DHT22;38045;52.988;6.536;2023-07-31T10:02:54;17.50;99.90
52034;DHT22;38045;52.988;6.536;2023-07-31T10:05:23;17.60;99.90
52034;DHT22;38045;52.988;6.536;2023-07-31T10:07:54;17.60;99.90
52034;DHT22;38045;52.988;6.536;2023-07-31T10:10:21;17.70;99.90
52034;DHT22;38045;52.988;6.536;2023-07-31T10:12:48;17.80;99.90
52034;DHT22;38045;52.988;6.536;2023-07-31T10:15:15;17.80;99.90
52034;DHT22;38045;52.988;6.536;2023-07-31T10:17:42;17.90;99.90
52034;DHT22;38045;52.988;6.536;2023-07-31T10:20:08;18.00;99.90
52034;DHT22;38045;52.988;6.536;2023-07-31T10:22:35;18.00;99.90
52034;DHT22;38045;52.988;6.536;2023-07-31T10:25:01;18.10;99.90
52034;DHT22;38045;52.988;6.536;2023-07-31T10:27:27;18.20;99.90
52034;DHT22;38045;52.988;6.536;2023-07-31T10:29:55;18.30;99.90
52034;DHT22;38045;52.988;6.536;2023-07-31T10:32:21;18.40;99.90
52034;DHT22;38045;52.988;6.536;2023-07-31T10:34:48;18.50;99.90
52034;DHT22;38045;52.988;6.536;2023-07-31T10:37:30;18.60;99.90
52034;DHT22;38045;52.988;6.536;2023-07-31T10:40:02;18.60;99.90
52034;DHT22;38045;52.988;6.536;2023-07-31T10:42:30;18.60;99.90
52034;DHT22;38045;52.988;6.536;2023-07-31T10:44:58;18.70;99.90
52034;DHT22;38045;52.988;6.536;2023-07-31T10:47:24;18.70;99.90
52034;DHT22;38045;52.988;6.536;2023-07-31T10:49:50;18.80;99.90
52034;DHT22;38045;52.988;6.536;2023-07-31T10:52:20;18.80;99.90
52034;DHT22;38045;52.988;6.536;2023-07-31T10:54:49;18.80;99.90
52034;DHT22;38045;52.988;6.536;2023-07-31T10:57:22;18.80;99.90
52034;DHT22;38045;52.988;6.536;2023-07-31T10:59:50;18.80;99.90
52034;DHT22;38045;52.988;6.536;2023-07-31T11:02:26;18.80;99.90
52034;DHT22;38045;52.988;6.536;2023-07-31T11:05:11;18.80;99.90
52034;DHT22;38045;52.988;6.536;2023-07-31T11:07:49;18.90;99.90
52034;DHT22;38045;52.988;6.536;2023-07-31T11:10:18;18.90;99.90
52034;DHT22;38045;52.988;6.536;2023-07-31T11:12:45;18.90;99.90
52034;DHT22;38045;52.988;6.536;2023-07-31T11:15:12;19.00;99.90
52034;DHT22;38045;52.988;6.536;2023-07-31T11:17:40;19.00;99.90
52034;DHT22;38045;52.988;6.536;2023-07-31T11:20:07;18.90;99.90
52034;DHT22;38045;52.988;6.536;2023-07-31T11:22:35;18.90;99.90
52034;DHT22;38045;52.988;6.536;2023-07-31T11:25:04;18.90;99.90
52034;DHT22;38045;52.988;6.536;2023-07-31T11:27:30;18.90;99.90
52034;DHT22;38045;52.988;6.536;2023-07-31T11:30:03;19.00;99.90
52034;DHT22;38045;52.988;6.536;2023-07-31T11:32:28;19.00;99.90
52034;DHT22;38045;52.988;6.536;2023-07-31T11:34:54;18.90;99.90
52034;DHT22;38045;52.988;6.536;2023-07-31T11:37:20;18.90;99.90
52034;DHT22;38045;52.988;6.536;2023-07-31T11:40:01;18.90;99.90
52034;DHT22;38045;52.988;6.536;2023-07-31T11:42:27;18.80;99.90
52034;DHT22;38045;52.988;6.536;2023-07-31T11:44:53;18.80;99.90
52034;DHT22;38045;52.988;6.536;2023-07-31T11:47:19;18.80;99.90
52034;DHT22;38045;52.988;6.536;2023-07-31T11:49:45;18.60;99.90
52034;DHT22;38045;52.988;6.536;2023-07-31T11:52:11;18.60;99.90
52034;DHT22;38045;52.988;6.536;2023-07-31T11:54:38;18.50;99.90
52034;DHT22;38045;52.988;6.536;2023-07-31T11:57:04;18.50;99.90
52034;DHT22;38045;52.988;6.536;2023-07-31T11:59:30;18.60;99.90
52034;DHT22;38045;52.988;6.536;2023-07-31T12:01:56;18.70;99.90
52034;DHT22;38045;52.988;6.536;2023-07-31T12:04:22;18.80;99.90
52034;DHT22;38045;52.988;6.536;2023-07-31T12:06:48;18.80;99.90
52034;DHT22;38045;52.988;6.536;2023-07-31T12:09:15;18.80;99.90
52034;DHT22;38045;52.988;6.536;2023-07-31T12:11:47;18.80;99.90
52034;DHT22;38045;52.988;6.536;2023-07-31T12:14:20;18.70;99.90
52034;DHT22;38045;52.988;6.536;2023-07-31T12:16:56;18.70;99.90
52034;DHT22;38045;52.988;6.536;2023-07-31T12:19:23;18.60;99.90
52034;DHT22;38045;52.988;6.536;2023-07-31T12:21:51;18.60;99.90
52034;DHT22;38045;52.988;6.536;2023-07-31T12:24:19;18.60;99.90
52034;DHT22;38045;52.988;6.536;2023-07-31T12:26:46;18.60;99.90
52034;DHT22;38045;52.988;6.536;2023-07-31T12:29:12;18.60;99.90
52034;DHT22;38045;52.988;6.536;2023-07-31T12:31:41;18.60;99.90
52034;DHT22;38045;52.988;6.536;2023-07-31T12:34:18;18.60;99.90
52034;DHT22;38045;52.988;6.536;2023-07-31T12:36:44;18.60;99.90
52034;DHT22;38045;52.988;6.536;2023-07-31T12:39:10;18.60;99.90
52034;DHT22;38045;52.988;6.536;2023-07-31T12:41:36;18.60;99.90
52034;DHT22;38045;52.988;6.536;2023-07-31T12:44:02;18.40;99.90
52034;DHT22;38045;52.988;6.536;2023-07-31T12:46:28;18.40;99.90
52034;DHT22;38045;52.988;6.536;2023-07-31T12:48:54;18.40;99.90
52034;DHT22;38045;52.988;6.536;2023-07-31T12:51:20;18.30;99.90
52034;DHT22;38045;52.988;6.536;2023-07-31T12:53:46;18.30;99.90
52034;DHT22;38045;52.988;6.536;2023-07-31T12:56:11;18.40;99.90
52034;DHT22;38045;52.988;6.536;2023-07-31T12:58:37;18.50;99.90
52034;DHT22;38045;52.988;6.536;2023-07-31T13:01:03;18.50;99.90
52034;DHT22;38045;52.988;6.536;2023-07-31T13:03:28;18.60;99.90
52034;DHT22;38045;52.988;6.536;2023-07-31T13:05:54;18.70;99.90
52034;DHT22;38045;52.988;6.536;2023-07-31T13:08:20;18.70;99.90
52034;DHT22;38045;52.988;6.536;2023-07-31T13:10:46;18.80;99.90
52034;DHT22;38045;52.988;6.536;2023-07-31T13:13:11;18.80;99.90
52034;DHT22;38045;52.988;6.536;2023-07-31T13:15:37;18.90;99.90
52034;DHT22;38045;52.988;6.536;2023-07-31T13:18:03;19.00;99.90
52034;DHT22;38045;52.988;6.536;2023-07-31T13:20:28;19.10;99.90
52034;DHT22;38045;52.988;6.536;2023-07-31T13:22:54;19.10;99.90
52034;DHT22;38045;52.988;6.536;2023-07-31T13:25:19;19.10;99.90
52034;DHT22;38045;52.988;6.536;2023-07-31T13:27:45;19.20;99.90
52034;DHT22;38045;52.988;6.536;2023-07-31T13:30:11;19.20;99.90
52034;DHT22;38045;52.988;6.536;2023-07-31T13:32:36;19.10;99.90
52034;DHT22;38045;52.988;6.536;2023-07-31T13:35:05;19.10;99.90
52034;DHT22;38045;52.988;6.536;2023-07-31T13:37:31;19.10;99.90
52034;DHT22;38045;52.988;6.536;2023-07-31T13:39:57;19.10;99.90
52034;DHT22;38045;52.988;6.536;2023-07-31T13:42:22;19.10;99.90
52034;DHT22;38045;52.988;6.536;2023-07-31T13:44:48;19.20;99.90
52034;DHT22;38045;52.988;6.536;2023-07-31T13:47:13;19.20;99.90
52034;DHT22;38045;52.988;6.536;2023-07-31T13:49:39;19.30;99.90
52034;DHT22;38045;52.988;6.536;2023-07-31T13:52:05;19.40;99.90
52034;DHT22;38045;52.988;6.536;2023-07-31T13:54:30;19.40;99.90
52034;DHT22;38045;52.988;6.536;2023-07-31T13:56:56;19.50;99.90
52034;DHT22;38045;52.988;6.536;2023-07-31T13:59:22;19.50;99.90
52034;DHT22;38045;52.988;6.536;2023-07-31T14:01:47;19.50;99.90
52034;DHT22;38045;52.988;6.536;2023-07-31T14:04:13;19.60;99.90
52034;DHT22;38045;52.988;6.536;2023-07-31T14:06:39;19.70;99.90
52034;DHT22;38045;52.988;6.536;2023-07-31T14:09:05;19.60;99.90
52034;DHT22;38045;52.988;6.536;2023-07-31T14:11:31;19.70;99.90
52034;DHT22;38045;52.988;6.536;2023-07-31T14:13:57;19.70;99.90
52034;DHT22;38045;52.988;6.536;2023-07-31T14:16:23;19.80;99.90
52034;DHT22;38045;52.988;6.536;2023-07-31T14:18:48;19.80;99.90
52034;DHT22;38045;52.988;6.536;2023-07-31T14:21:14;19.80;99.90
52034;DHT22;38045;52.988;6.536;2023-07-31T14:23:41;19.80;99.90
52034;DHT22;38045;52.988;6.536;2023-07-31T14:26:07;19.80;99.90
52034;DHT22;38045;52.988;6.536;2023-07-31T14:28:32;19.80;99.90
52034;DHT22;38045;52.988;6.536;2023-07-31T14:30:58;19.80;99.90
52034;DHT22;38045;52.988;6.536;2023-07-31T14:33:24;19.80;99.90
52034;DHT22;38045;52.988;6.536;2023-07-31T14:35:50;19.80;99.90
52034;DHT22;38045;52.988;6.536;2023-07-31T14:38:15;19.80;99.90
52034;DHT22;38045;52.988;6.536;2023-07-31T14:40:41;19.90;99.90
52034;DHT22;38045;52.988;6.536;2023-07-31T14:43:07;19.80;99.90
52034;DHT22;38045;52.988;6.536;2023-07-31T14:45:32;19.80;99.90
52034;DHT22;38045;52.988;6.536;2023-07-31T14:47:58;19.80;99.90
52034;DHT22;38045;52.988;6.536;2023-07-31T14:50:24;19.80;99.90
52034;DHT22;38045;52.988;6.536;2023-07-31T14:52:50;19.70;99.90
52034;DHT22;38045;52.988;6.536;2023-07-31T14:55:16;19.70;99.90
52034;DHT22;38045;52.988;6.536;2023-07-31T14:57:42;19.70;99.90
52034;DHT22;38045;52.988;6.536;2023-07-31T15:00:08;19.70;99.90
52034;DHT22;38045;52.988;6.536;2023-07-31T15:02:43;19.70;99.90
52034;DHT22;38045;52.988;6.536;2023-07-31T15:05:09;19.60;99.90
52034;DHT22;38045;52.988;6.536;2023-07-31T15:07:34;19.60;99.90
52034;DHT22;38045;52.988;6.536;2023-07-31T15:10:01;19.60;99.90
52034;DHT22;38045;52.988;6.536;2023-07-31T15:12:28;19.60;99.90
52034;DHT22;38045;52.988;6.536;2023-07-31T15:14:54;19.60;99.90
52034;DHT22;38045;52.988;6.536;2023-07-31T15:17:20;19.60;99.90
52034;DHT22;38045;52.988;6.536;2023-07-31T15:19:45;19.60;99.90
52034;DHT22;38045;52.988;6.536;2023-07-31T15:22:11;19.60;99.90
52034;DHT22;38045;52.988;6.536;2023-07-31T15:24:37;19.50;99.90
52034;DHT22;38045;52.988;6.536;2023-07-31T15:27:02;19.50;99.90